Terminal Aerodrome Forecast
Issued by NWS

Home | Current Version | Previous Version | Text Only | Print | Product List | Glossary On
Versions: 1 2 3 4 5 6 7 8 9 10 11 12 13 14 15 16 17 18 19 20
000
FTUS44 KMAF 271700
TAFFST
TAF
KFST 271738Z 2718/2818 08011KT P6SM OVC025
      TEMPO 2718/2722 2SM -SNPL BR OVC004
     FM280300 10013KT 5SM BR OVC010
      TEMPO 2806/2810 3SM -FZDZSNPL BR OVC005=

USA.gov is the U.S. government's official web portal to all federal, state and local government web resources and services.